sensor_id;sensor_type;location;lat;lon;timestamp;P1;durP1;ratioP1;P2;durP2;ratioP2
34405;SDS011;20658;45.630;8.886;2022-07-21T00:02:33;8.27;;;4.65;;
34405;SDS011;20658;45.630;8.886;2022-07-21T00:05:07;10.82;;;4.45;;
34405;SDS011;20658;45.630;8.886;2022-07-21T00:07:41;13.52;;;4.05;;
34405;SDS011;20658;45.630;8.886;2022-07-21T00:10:15;16.75;;;5.18;;
34405;SDS011;20658;45.630;8.886;2022-07-21T00:12:48;14.68;;;5.13;;
34405;SDS011;20658;45.630;8.886;2022-07-21T00:15:23;14.70;;;5.45;;
34405;SDS011;20658;45.630;8.886;2022-07-21T00:17:59;14.65;;;4.70;;
34405;SDS011;20658;45.630;8.886;2022-07-21T00:20:33;10.98;;;4.35;;
34405;SDS011;20658;45.630;8.886;2022-07-21T00:23:06;11.30;;;4.57;;
34405;SDS011;20658;45.630;8.886;2022-07-21T00:25:40;14.07;;;5.03;;
34405;SDS011;20658;45.630;8.886;2022-07-21T00:28:13;11.27;;;5.43;;
34405;SDS011;20658;45.630;8.886;2022-07-21T00:30:46;11.27;;;4.85;;
34405;SDS011;20658;45.630;8.886;2022-07-21T00:33:21;13.25;;;4.70;;
34405;SDS011;20658;45.630;8.886;2022-07-21T00:35:54;10.98;;;4.13;;
34405;SDS011;20658;45.630;8.886;2022-07-21T00:38:27;14.50;;;5.07;;
34405;SDS011;20658;45.630;8.886;2022-07-21T00:41:01;12.55;;;4.85;;
34405;SDS011;20658;45.630;8.886;2022-07-21T00:43:34;14.88;;;4.10;;
34405;SDS011;20658;45.630;8.886;2022-07-21T00:46:07;15.07;;;4.78;;
34405;SDS011;20658;45.630;8.886;2022-07-21T00:48:42;14.98;;;5.18;;
34405;SDS011;20658;45.630;8.886;2022-07-21T00:51:15;22.48;;;5.57;;
34405;SDS011;20658;45.630;8.886;2022-07-21T00:53:49;11.38;;;5.28;;
34405;SDS011;20658;45.630;8.886;2022-07-21T00:56:22;11.80;;;5.68;;
34405;SDS011;20658;45.630;8.886;2022-07-21T00:58:55;12.85;;;4.80;;
34405;SDS011;20658;45.630;8.886;2022-07-21T01:01:29;14.57;;;5.22;;
34405;SDS011;20658;45.630;8.886;2022-07-21T01:04:04;12.43;;;5.30;;
34405;SDS011;20658;45.630;8.886;2022-07-21T01:06:37;13.65;;;5.07;;
34405;SDS011;20658;45.630;8.886;2022-07-21T01:09:10;11.10;;;5.05;;
34405;SDS011;20658;45.630;8.886;2022-07-21T01:11:44;17.20;;;4.63;;
34405;SDS011;20658;45.630;8.886;2022-07-21T01:14:17;11.90;;;5.30;;
34405;SDS011;20658;45.630;8.886;2022-07-21T01:16:51;10.55;;;4.68;;
34405;SDS011;20658;45.630;8.886;2022-07-21T01:19:26;17.88;;;5.18;;
34405;SDS011;20658;45.630;8.886;2022-07-21T01:22:01;10.10;;;4.63;;
34405;SDS011;20658;45.630;8.886;2022-07-21T01:24:34;11.07;;;4.32;;
34405;SDS011;20658;45.630;8.886;2022-07-21T01:27:08;9.70;;;4.53;;
34405;SDS011;20658;45.630;8.886;2022-07-21T01:29:41;9.45;;;4.53;;
34405;SDS011;20658;45.630;8.886;2022-07-21T01:32:14;13.95;;;4.28;;
34405;SDS011;20658;45.630;8.886;2022-07-21T01:34:48;16.10;;;4.80;;
34405;SDS011;20658;45.630;8.886;2022-07-21T01:37:23;12.55;;;4.78;;
34405;SDS011;20658;45.630;8.886;2022-07-21T01:40:01;8.38;;;4.18;;
34405;SDS011;20658;45.630;8.886;2022-07-21T01:43:01;12.07;;;4.10;;
34405;SDS011;20658;45.630;8.886;2022-07-21T01:45:34;14.02;;;4.75;;
34405;SDS011;20658;45.630;8.886;2022-07-21T01:48:08;11.45;;;4.55;;
34405;SDS011;20658;45.630;8.886;2022-07-21T01:50:42;12.43;;;4.32;;
34405;SDS011;20658;45.630;8.886;2022-07-21T01:53:17;11.60;;;4.43;;
34405;SDS011;20658;45.630;8.886;2022-07-21T01:55:50;12.50;;;4.82;;
34405;SDS011;20658;45.630;8.886;2022-07-21T01:58:23;8.20;;;4.10;;
34405;SDS011;20658;45.630;8.886;2022-07-21T02:00:57;13.00;;;4.72;;
34405;SDS011;20658;45.630;8.886;2022-07-21T02:03:30;11.43;;;5.00;;
34405;SDS011;20658;45.630;8.886;2022-07-21T02:06:04;8.73;;;4.80;;
34405;SDS011;20658;45.630;8.886;2022-07-21T02:08:41;18.42;;;5.47;;
34405;SDS011;20658;45.630;8.886;2022-07-21T02:11:15;12.15;;;5.10;;
34405;SDS011;20658;45.630;8.886;2022-07-21T02:13:50;14.60;;;5.40;;
34405;SDS011;20658;45.630;8.886;2022-07-21T02:16:23;14.30;;;5.28;;
34405;SDS011;20658;45.630;8.886;2022-07-21T02:18:56;11.40;;;4.38;;
34405;SDS011;20658;45.630;8.886;2022-07-21T02:21:30;15.93;;;5.25;;
34405;SDS011;20658;45.630;8.886;2022-07-21T02:24:05;9.88;;;3.95;;
34405;SDS011;20658;45.630;8.886;2022-07-21T02:26:38;16.30;;;4.97;;
34405;SDS011;20658;45.630;8.886;2022-07-21T02:29:12;14.82;;;4.50;;
34405;SDS011;20658;45.630;8.886;2022-07-21T02:31:45;15.65;;;5.32;;
34405;SDS011;20658;45.630;8.886;2022-07-21T02:34:18;17.65;;;5.70;;
34405;SDS011;20658;45.630;8.886;2022-07-21T02:36:52;16.17;;;5.13;;
34405;SDS011;20658;45.630;8.886;2022-07-21T02:39:26;11.93;;;6.20;;
34405;SDS011;20658;45.630;8.886;2022-07-21T02:42:00;16.30;;;6.55;;
34405;SDS011;20658;45.630;8.886;2022-07-21T02:44:33;9.25;;;5.15;;
34405;SDS011;20658;45.630;8.886;2022-07-21T02:47:07;13.02;;;4.95;;
34405;SDS011;20658;45.630;8.886;2022-07-21T02:49:41;11.30;;;4.90;;
34405;SDS011;20658;45.630;8.886;2022-07-21T02:52:16;12.45;;;4.43;;
34405;SDS011;20658;45.630;8.886;2022-07-21T02:54:51;14.27;;;4.85;;
34405;SDS011;20658;45.630;8.886;2022-07-21T02:57:24;11.38;;;5.45;;
34405;SDS011;20658;45.630;8.886;2022-07-21T02:59:57;13.57;;;5.13;;
34405;SDS011;20658;45.630;8.886;2022-07-21T03:02:31;12.05;;;5.32;;
34405;SDS011;20658;45.630;8.886;2022-07-21T03:05:05;10.60;;;6.00;;
34405;SDS011;20658;45.630;8.886;2022-07-21T03:07:39;16.48;;;5.70;;
34405;SDS011;20658;45.630;8.886;2022-07-21T03:10:13;13.32;;;5.25;;
34405;SDS011;20658;45.630;8.886;2022-07-21T03:12:47;13.55;;;4.70;;
34405;SDS011;20658;45.630;8.886;2022-07-21T03:15:20;17.20;;;5.15;;
34405;SDS011;20658;45.630;8.886;2022-07-21T03:17:54;12.02;;;5.50;;
34405;SDS011;20658;45.630;8.886;2022-07-21T03:20:29;14.35;;;5.18;;
34405;SDS011;20658;45.630;8.886;2022-07-21T03:23:04;11.82;;;5.22;;
34405;SDS011;20658;45.630;8.886;2022-07-21T03:25:39;10.50;;;5.57;;
34405;SDS011;20658;45.630;8.886;2022-07-21T03:28:13;17.90;;;6.00;;
34405;SDS011;20658;45.630;8.886;2022-07-21T03:30:46;15.00;;;6.40;;
34405;SDS011;20658;45.630;8.886;2022-07-21T03:33:20;9.73;;;5.25;;
34405;SDS011;20658;45.630;8.886;2022-07-21T03:35:54;17.75;;;6.55;;
34405;SDS011;20658;45.630;8.886;2022-07-21T03:38:29;13.20;;;6.50;;
34405;SDS011;20658;45.630;8.886;2022-07-21T03:41:04;15.88;;;6.07;;
34405;SDS011;20658;45.630;8.886;2022-07-21T03:43:37;17.70;;;5.93;;
34405;SDS011;20658;45.630;8.886;2022-07-21T03:46:11;9.80;;;5.18;;
34405;SDS011;20658;45.630;8.886;2022-07-21T03:48:44;12.43;;;5.50;;
34405;SDS011;20658;45.630;8.886;2022-07-21T03:51:17;15.15;;;6.07;;
34405;SDS011;20658;45.630;8.886;2022-07-21T03:53:51;11.98;;;5.68;;
34405;SDS011;20658;45.630;8.886;2022-07-21T03:56:26;12.73;;;5.97;;
34405;SDS011;20658;45.630;8.886;2022-07-21T03:58:59;15.50;;;5.80;;
34405;SDS011;20658;45.630;8.886;2022-07-21T04:01:33;12.43;;;4.88;;
34405;SDS011;20658;45.630;8.886;2022-07-21T04:04:06;10.52;;;5.78;;
34405;SDS011;20658;45.630;8.886;2022-07-21T04:06:40;12.48;;;5.50;;
34405;SDS011;20658;45.630;8.886;2022-07-21T04:09:13;11.93;;;5.20;;
34405;SDS011;20658;45.630;8.886;2022-07-21T04:11:49;16.88;;;5.38;;
34405;SDS011;20658;45.630;8.886;2022-07-21T04:14:23;8.68;;;5.20;;
34405;SDS011;20658;45.630;8.886;2022-07-21T04:16:56;9.52;;;5.47;;
34405;SDS011;20658;45.630;8.886;2022-07-21T04:19:30;10.48;;;5.05;;
34405;SDS011;20658;45.630;8.886;2022-07-21T04:22:03;10.55;;;5.90;;
34405;SDS011;20658;45.630;8.886;2022-07-21T04:24:37;11.65;;;5.30;;
34405;SDS011;20658;45.630;8.886;2022-07-21T04:27:12;14.57;;;5.53;;
34405;SDS011;20658;45.630;8.886;2022-07-21T04:29:45;19.02;;;5.55;;
34405;SDS011;20658;45.630;8.886;2022-07-21T04:32:19;13.60;;;5.55;;
34405;SDS011;20658;45.630;8.886;2022-07-21T04:34:52;11.10;;;5.35;;
34405;SDS011;20658;45.630;8.886;2022-07-21T04:37:26;15.18;;;6.38;;
34405;SDS011;20658;45.630;8.886;2022-07-21T04:39:59;14.00;;;5.43;;
34405;SDS011;20658;45.630;8.886;2022-07-21T04:42:35;13.75;;;5.72;;
34405;SDS011;20658;45.630;8.886;2022-07-21T04:45:10;12.43;;;5.63;;
34405;SDS011;20658;45.630;8.886;2022-07-21T04:47:48;13.00;;;6.47;;
34405;SDS011;20658;45.630;8.886;2022-07-21T04:50:24;10.60;;;5.93;;
34405;SDS011;20658;45.630;8.886;2022-07-21T04:52:59;12.85;;;6.65;;
34405;SDS011;20658;45.630;8.886;2022-07-21T04:55:33;16.33;;;6.15;;
34405;SDS011;20658;45.630;8.886;2022-07-21T04:58:08;14.10;;;6.25;;
34405;SDS011;20658;45.630;8.886;2022-07-21T05:00:41;15.68;;;5.80;;
34405;SDS011;20658;45.630;8.886;2022-07-21T05:03:15;13.93;;;5.97;;
34405;SDS011;20658;45.630;8.886;2022-07-21T05:05:48;8.60;;;5.45;;
34405;SDS011;20658;45.630;8.886;2022-07-21T05:08:22;17.17;;;5.85;;
34405;SDS011;20658;45.630;8.886;2022-07-21T05:10:57;12.05;;;6.30;;
34405;SDS011;20658;45.630;8.886;2022-07-21T05:13:32;12.35;;;6.32;;
34405;SDS011;20658;45.630;8.886;2022-07-21T05:16:05;13.32;;;5.90;;
34405;SDS011;20658;45.630;8.886;2022-07-21T05:18:39;17.73;;;6.78;;
34405;SDS011;20658;45.630;8.886;2022-07-21T05:21:12;16.73;;;6.68;;
34405;SDS011;20658;45.630;8.886;2022-07-21T05:23:46;10.38;;;6.50;;
34405;SDS011;20658;45.630;8.886;2022-07-21T05:26:19;10.52;;;6.07;;
34405;SDS011;20658;45.630;8.886;2022-07-21T05:28:54;10.75;;;6.28;;
34405;SDS011;20658;45.630;8.886;2022-07-21T05:31:28;11.75;;;6.20;;
34405;SDS011;20658;45.630;8.886;2022-07-21T05:34:01;12.00;;;5.63;;
34405;SDS011;20658;45.630;8.886;2022-07-21T05:36:35;12.07;;;6.35;;
34405;SDS011;20658;45.630;8.886;2022-07-21T05:39:08;14.75;;;6.40;;
34405;SDS011;20658;45.630;8.886;2022-07-21T05:41:42;14.30;;;5.97;;
34405;SDS011;20658;45.630;8.886;2022-07-21T05:44:17;14.30;;;6.07;;
34405;SDS011;20658;45.630;8.886;2022-07-21T05:46:50;14.68;;;6.18;;
34405;SDS011;20658;45.630;8.886;2022-07-21T05:49:24;16.05;;;6.10;;
34405;SDS011;20658;45.630;8.886;2022-07-21T05:51:57;13.95;;;5.45;;
34405;SDS011;20658;45.630;8.886;2022-07-21T05:54:31;13.10;;;6.38;;
34405;SDS011;20658;45.630;8.886;2022-07-21T05:57:04;14.48;;;5.75;;
34405;SDS011;20658;45.630;8.886;2022-07-21T05:59:39;16.38;;;6.30;;
34405;SDS011;20658;45.630;8.886;2022-07-21T06:02:12;13.68;;;5.55;;
34405;SDS011;20658;45.630;8.886;2022-07-21T06:04:46;13.05;;;5.75;;
34405;SDS011;20658;45.630;8.886;2022-07-21T06:07:20;13.40;;;5.00;;
34405;SDS011;20658;45.630;8.886;2022-07-21T06:09:53;17.90;;;5.15;;
34405;SDS011;20658;45.630;8.886;2022-07-21T06:12:26;12.07;;;5.53;;
34405;SDS011;20658;45.630;8.886;2022-07-21T06:15:01;11.88;;;4.75;;
34405;SDS011;20658;45.630;8.886;2022-07-21T06:17:38;14.65;;;4.75;;
34405;SDS011;20658;45.630;8.886;2022-07-21T06:20:12;17.98;;;5.28;;
34405;SDS011;20658;45.630;8.886;2022-07-21T06:22:46;17.73;;;5.10;;
34405;SDS011;20658;45.630;8.886;2022-07-21T06:25:20;13.57;;;4.63;;
34405;SDS011;20658;45.630;8.886;2022-07-21T06:27:53;16.75;;;5.40;;
34405;SDS011;20658;45.630;8.886;2022-07-21T06:30:28;13.82;;;4.80;;
34405;SDS011;20658;45.630;8.886;2022-07-21T06:33:01;12.95;;;4.75;;
34405;SDS011;20658;45.630;8.886;2022-07-21T06:35:35;14.05;;;5.03;;
34405;SDS011;20658;45.630;8.886;2022-07-21T06:38:09;17.50;;;4.40;;
34405;SDS011;20658;45.630;8.886;2022-07-21T06:40:43;14.27;;;4.50;;
34405;SDS011;20658;45.630;8.886;2022-07-21T06:43:16;13.70;;;5.22;;
34405;SDS011;20658;45.630;8.886;2022-07-21T06:45:51;12.77;;;5.18;;
34405;SDS011;20658;45.630;8.886;2022-07-21T06:48:25;10.93;;;4.82;;
34405;SDS011;20658;45.630;8.886;2022-07-21T06:50:59;11.55;;;3.78;;
34405;SDS011;20658;45.630;8.886;2022-07-21T06:53:32;13.50;;;3.88;;
34405;SDS011;20658;45.630;8.886;2022-07-21T06:56:06;11.23;;;3.30;;
34405;SDS011;20658;45.630;8.886;2022-07-21T06:58:39;7.32;;;3.90;;
34405;SDS011;20658;45.630;8.886;2022-07-21T07:01:14;7.45;;;3.40;;
34405;SDS011;20658;45.630;8.886;2022-07-21T07:03:49;11.80;;;3.45;;
34405;SDS011;20658;45.630;8.886;2022-07-21T07:06:23;9.88;;;3.42;;
34405;SDS011;20658;45.630;8.886;2022-07-21T07:08:57;14.10;;;3.97;;
34405;SDS011;20658;45.630;8.886;2022-07-21T07:11:30;9.80;;;4.18;;
34405;SDS011;20658;45.630;8.886;2022-07-21T07:14:04;12.10;;;3.50;;
34405;SDS011;20658;45.630;8.886;2022-07-21T07:16:39;14.02;;;3.33;;
34405;SDS011;20658;45.630;8.886;2022-07-21T07:19:12;12.73;;;3.17;;
34405;SDS011;20658;45.630;8.886;2022-07-21T07:21:46;13.38;;;3.53;;
34405;SDS011;20658;45.630;8.886;2022-07-21T07:24:19;10.07;;;3.42;;
34405;SDS011;20658;45.630;8.886;2022-07-21T07:26:53;11.60;;;3.70;;
34405;SDS011;20658;45.630;8.886;2022-07-21T07:29:28;13.68;;;3.63;;
34405;SDS011;20658;45.630;8.886;2022-07-21T07:32:04;9.30;;;3.78;;
34405;SDS011;20658;45.630;8.886;2022-07-21T07:34:38;14.75;;;3.97;;
34405;SDS011;20658;45.630;8.886;2022-07-21T07:37:11;7.75;;;2.97;;
34405;SDS011;20658;45.630;8.886;2022-07-21T07:39:45;9.15;;;3.58;;
34405;SDS011;20658;45.630;8.886;2022-07-21T07:42:18;11.25;;;3.97;;
34405;SDS011;20658;45.630;8.886;2022-07-21T07:44:52;11.48;;;4.00;;
34405;SDS011;20658;45.630;8.886;2022-07-21T07:47:26;10.00;;;3.88;;
34405;SDS011;20658;45.630;8.886;2022-07-21T07:50:00;12.05;;;3.80;;
34405;SDS011;20658;45.630;8.886;2022-07-21T07:52:34;14.18;;;3.72;;
34405;SDS011;20658;45.630;8.886;2022-07-21T07:55:08;7.82;;;3.35;;
34405;SDS011;20658;45.630;8.886;2022-07-21T07:57:42;12.18;;;4.18;;
34405;SDS011;20658;45.630;8.886;2022-07-21T08:00:17;12.02;;;4.22;;
34405;SDS011;20658;45.630;8.886;2022-07-21T08:02:52;12.88;;;3.83;;
34405;SDS011;20658;45.630;8.886;2022-07-21T08:05:26;7.90;;;3.78;;
34405;SDS011;20658;45.630;8.886;2022-07-21T08:07:59;11.25;;;4.15;;
34405;SDS011;20658;45.630;8.886;2022-07-21T08:10:33;5.50;;;3.40;;
34405;SDS011;20658;45.630;8.886;2022-07-21T08:13:06;15.32;;;3.90;;
34405;SDS011;20658;45.630;8.886;2022-07-21T08:15:41;10.00;;;3.47;;
34405;SDS011;20658;45.630;8.886;2022-07-21T08:18:16;17.80;;;4.15;;
34405;SDS011;20658;45.630;8.886;2022-07-21T08:20:50;13.80;;;3.72;;
34405;SDS011;20658;45.630;8.886;2022-07-21T08:23:24;22.35;;;4.00;;
34405;SDS011;20658;45.630;8.886;2022-07-21T08:25:57;8.88;;;3.38;;
34405;SDS011;20658;45.630;8.886;2022-07-21T08:28:32;11.43;;;3.80;;
34405;SDS011;20658;45.630;8.886;2022-07-21T08:31:05;13.52;;;4.00;;
34405;SDS011;20658;45.630;8.886;2022-07-21T08:33:40;13.95;;;3.95;;
34405;SDS011;20658;45.630;8.886;2022-07-21T08:36:13;11.18;;;3.42;;
34405;SDS011;20658;45.630;8.886;2022-07-21T08:38:47;10.25;;;4.22;;
34405;SDS011;20658;45.630;8.886;2022-07-21T08:41:20;18.92;;;4.35;;
34405;SDS011;20658;45.630;8.886;2022-07-21T08:43:54;14.38;;;3.80;;
34405;SDS011;20658;45.630;8.886;2022-07-21T08:46:28;10.55;;;3.90;;
34405;SDS011;20658;45.630;8.886;2022-07-21T08:49:03;12.40;;;4.18;;
34405;SDS011;20658;45.630;8.886;2022-07-21T08:51:38;9.60;;;3.90;;
34405;SDS011;20658;45.630;8.886;2022-07-21T08:54:11;9.40;;;3.55;;
34405;SDS011;20658;45.630;8.886;2022-07-21T08:56:44;9.68;;;3.75;;
34405;SDS011;20658;45.630;8.886;2022-07-21T08:59:18;9.98;;;3.60;;
34405;SDS011;20658;45.630;8.886;2022-07-21T09:01:51;14.85;;;3.78;;
34405;SDS011;20658;45.630;8.886;2022-07-21T09:04:26;6.82;;;3.67;;
34405;SDS011;20658;45.630;8.886;2022-07-21T09:07:02;9.38;;;3.50;;
34405;SDS011;20658;45.630;8.886;2022-07-21T09:09:38;9.43;;;3.67;;
34405;SDS011;20658;45.630;8.886;2022-07-21T09:12:14;12.00;;;3.72;;
34405;SDS011;20658;45.630;8.886;2022-07-21T09:14:47;13.95;;;3.83;;
34405;SDS011;20658;45.630;8.886;2022-07-21T09:17:21;11.90;;;4.07;;
34405;SDS011;20658;45.630;8.886;2022-07-21T09:19:56;10.65;;;3.40;;
34405;SDS011;20658;45.630;8.886;2022-07-21T09:22:29;8.57;;;3.65;;
34405;SDS011;20658;45.630;8.886;2022-07-21T09:25:03;15.32;;;3.83;;
34405;SDS011;20658;45.630;8.886;2022-07-21T09:27:37;14.82;;;3.72;;
34405;SDS011;20658;45.630;8.886;2022-07-21T09:30:14;9.95;;;3.67;;
34405;SDS011;20658;45.630;8.886;2022-07-21T09:32:47;8.07;;;3.97;;
34405;SDS011;20658;45.630;8.886;2022-07-21T09:35:22;7.95;;;3.63;;
34405;SDS011;20658;45.630;8.886;2022-07-21T09:37:56;14.55;;;3.75;;
34405;SDS011;20658;45.630;8.886;2022-07-21T09:40:29;13.23;;;4.13;;
34405;SDS011;20658;45.630;8.886;2022-07-21T09:43:03;8.70;;;3.45;;
34405;SDS011;20658;45.630;8.886;2022-07-21T09:45:36;20.42;;;4.10;;
34405;SDS011;20658;45.630;8.886;2022-07-21T09:51:23;9.07;;;3.28;;
34405;SDS011;20658;45.630;8.886;2022-07-21T09:53:59;8.45;;;4.30;;
34405;SDS011;20658;45.630;8.886;2022-07-21T09:56:35;12.48;;;3.88;;
34405;SDS011;20658;45.630;8.886;2022-07-21T09:59:10;11.38;;;4.28;;
34405;SDS011;20658;45.630;8.886;2022-07-21T10:01:45;10.40;;;3.72;;
34405;SDS011;20658;45.630;8.886;2022-07-21T10:04:22;12.98;;;3.80;;
34405;SDS011;20658;45.630;8.886;2022-07-21T10:06:58;14.98;;;4.53;;
34405;SDS011;20658;45.630;8.886;2022-07-21T10:09:33;14.70;;;4.80;;
34405;SDS011;20658;45.630;8.886;2022-07-21T10:12:07;10.30;;;3.70;;
34405;SDS011;20658;45.630;8.886;2022-07-21T10:14:41;11.52;;;3.97;;
34405;SDS011;20658;45.630;8.886;2022-07-21T10:17:15;8.32;;;3.90;;
34405;SDS011;20658;45.630;8.886;2022-07-21T10:19:52;14.90;;;4.15;;
34405;SDS011;20658;45.630;8.886;2022-07-21T10:22:44;11.30;;;4.45;;
34405;SDS011;20658;45.630;8.886;2022-07-21T10:25:30;12.27;;;4.35;;
34405;SDS011;20658;45.630;8.886;2022-07-21T10:28:16;14.90;;;4.78;;
34405;SDS011;20658;45.630;8.886;2022-07-21T10:30:55;11.27;;;4.72;;
34405;SDS011;20658;45.630;8.886;2022-07-21T10:36:39;13.68;;;5.25;;
34405;SDS011;20658;45.630;8.886;2022-07-21T10:39:18;10.45;;;4.47;;
34405;SDS011;20658;45.630;8.886;2022-07-21T10:41:56;11.35;;;5.50;;
34405;SDS011;20658;45.630;8.886;2022-07-21T10:44:40;16.33;;;6.35;;
34405;SDS011;20658;45.630;8.886;2022-07-21T10:47:18;17.17;;;6.75;;
34405;SDS011;20658;45.630;8.886;2022-07-21T10:49:57;17.27;;;8.80;;
34405;SDS011;20658;45.630;8.886;2022-07-21T10:55:47;16.05;;;9.38;;
34405;SDS011;20658;45.630;8.886;2022-07-21T10:58:25;16.08;;;7.10;;
34405;SDS011;20658;45.630;8.886;2022-07-21T11:01:04;13.88;;;7.07;;
34405;SDS011;20658;45.630;8.886;2022-07-21T11:03:40;12.85;;;5.72;;
34405;SDS011;20658;45.630;8.886;2022-07-21T11:06:20;10.23;;;6.50;;
34405;SDS011;20658;45.630;8.886;2022-07-21T11:09:06;16.13;;;6.95;;
34405;SDS011;20658;45.630;8.886;2022-07-21T11:11:59;15.55;;;6.90;;
34405;SDS011;20658;45.630;8.886;2022-07-21T11:14:36;13.18;;;8.80;;
34405;SDS011;20658;45.630;8.886;2022-07-21T11:17:23;13.88;;;8.00;;
34405;SDS011;20658;45.630;8.886;2022-07-21T11:20:11;14.43;;;6.82;;
34405;SDS011;20658;45.630;8.886;2022-07-21T11:22:52;14.45;;;7.05;;
34405;SDS011;20658;45.630;8.886;2022-07-21T11:25:26;14.50;;;5.72;;
34405;SDS011;20658;45.630;8.886;2022-07-21T11:28:02;11.35;;;5.63;;
34405;SDS011;20658;45.630;8.886;2022-07-21T11:30:49;12.32;;;6.45;;
34405;SDS011;20658;45.630;8.886;2022-07-21T11:33:45;12.55;;;5.93;;
34405;SDS011;20658;45.630;8.886;2022-07-21T11:36:24;10.55;;;6.10;;
34405;SDS011;20658;45.630;8.886;2022-07-21T11:39:01;16.23;;;5.00;;
34405;SDS011;20658;45.630;8.886;2022-07-21T11:41:38;14.00;;;5.32;;
34405;SDS011;20658;45.630;8.886;2022-07-21T11:44:21;10.10;;;5.25;;
34405;SDS011;20658;45.630;8.886;2022-07-21T11:46:57;18.77;;;6.05;;
34405;SDS011;20658;45.630;8.886;2022-07-21T11:49:32;12.65;;;5.10;;
34405;SDS011;20658;45.630;8.886;2022-07-21T11:52:07;9.73;;;4.75;;
34405;SDS011;20658;45.630;8.886;2022-07-21T11:54:43;12.10;;;4.78;;
34405;SDS011;20658;45.630;8.886;2022-07-21T11:57:19;13.38;;;5.18;;
34405;SDS011;20658;45.630;8.886;2022-07-21T11:59:56;10.35;;;4.80;;
34405;SDS011;20658;45.630;8.886;2022-07-21T12:02:37;8.80;;;4.57;;
34405;SDS011;20658;45.630;8.886;2022-07-21T12:05:11;13.65;;;4.15;;
34405;SDS011;20658;45.630;8.886;2022-07-21T12:07:46;12.13;;;4.20;;
34405;SDS011;20658;45.630;8.886;2022-07-21T12:10:24;11.55;;;4.93;;
34405;SDS011;20658;45.630;8.886;2022-07-21T12:12:59;10.13;;;4.32;;
34405;SDS011;20658;45.630;8.886;2022-07-21T12:15:37;19.33;;;11.10;;
34405;SDS011;20658;45.630;8.886;2022-07-21T12:18:17;16.10;;;4.43;;
34405;SDS011;20658;45.630;8.886;2022-07-21T12:21:00;7.93;;;4.32;;
34405;SDS011;20658;45.630;8.886;2022-07-21T12:23:34;12.43;;;4.05;;
34405;SDS011;20658;45.630;8.886;2022-07-21T12:26:18;9.40;;;3.80;;
34405;SDS011;20658;45.630;8.886;2022-07-21T12:28:54;12.98;;;4.22;;
34405;SDS011;20658;45.630;8.886;2022-07-21T12:31:29;11.50;;;4.28;;
34405;SDS011;20658;45.630;8.886;2022-07-21T12:34:10;8.05;;;3.42;;
34405;SDS011;20658;45.630;8.886;2022-07-21T12:36:47;9.00;;;3.77;;
34405;SDS011;20658;45.630;8.886;2022-07-21T12:39:21;11.52;;;4.07;;
34405;SDS011;20658;45.630;8.886;2022-07-21T12:42:26;19.33;;;4.15;;
34405;SDS011;20658;45.630;8.886;2022-07-21T12:45:11;10.50;;;4.45;;
34405;SDS011;20658;45.630;8.886;2022-07-21T12:50:40;12.88;;;4.68;;
34405;SDS011;20658;45.630;8.886;2022-07-21T12:53:14;9.02;;;4.25;;
34405;SDS011;20658;45.630;8.886;2022-07-21T12:55:48;9.63;;;3.95;;
34405;SDS011;20658;45.630;8.886;2022-07-21T12:58:21;9.77;;;4.18;;
34405;SDS011;20658;45.630;8.886;2022-07-21T13:00:55;11.07;;;4.22;;
34405;SDS011;20658;45.630;8.886;2022-07-21T13:03:31;10.43;;;3.70;;
34405;SDS011;20658;45.630;8.886;2022-07-21T13:06:06;9.50;;;4.10;;
34405;SDS011;20658;45.630;8.886;2022-07-21T13:08:41;11.23;;;4.30;;
34405;SDS011;20658;45.630;8.886;2022-07-21T13:11:16;9.13;;;3.72;;
34405;SDS011;20658;45.630;8.886;2022-07-21T13:13:52;11.13;;;4.05;;
34405;SDS011;20658;45.630;8.886;2022-07-21T13:16:29;14.05;;;4.00;;
34405;SDS011;20658;45.630;8.886;2022-07-21T13:19:03;8.95;;;3.92;;
34405;SDS011;20658;45.630;8.886;2022-07-21T13:21:37;7.65;;;4.03;;
34405;SDS011;20658;45.630;8.886;2022-07-21T13:24:10;13.85;;;3.75;;
34405;SDS011;20658;45.630;8.886;2022-07-21T13:26:44;12.38;;;4.47;;
34405;SDS011;20658;45.630;8.886;2022-07-21T13:29:18;13.45;;;3.78;;
34405;SDS011;20658;45.630;8.886;2022-07-21T13:31:51;10.60;;;3.95;;
34405;SDS011;20658;45.630;8.886;2022-07-21T13:34:26;12.15;;;4.60;;
34405;SDS011;20658;45.630;8.886;2022-07-21T13:37:00;7.30;;;3.67;;
34405;SDS011;20658;45.630;8.886;2022-07-21T13:39:33;9.73;;;4.40;;
34405;SDS011;20658;45.630;8.886;2022-07-21T13:42:07;10.93;;;4.00;;
34405;SDS011;20658;45.630;8.886;2022-07-21T13:44:40;7.68;;;3.08;;
34405;SDS011;20658;45.630;8.886;2022-07-21T13:47:13;11.07;;;4.07;;
34405;SDS011;20658;45.630;8.886;2022-07-21T13:49:48;5.88;;;3.45;;
34405;SDS011;20658;45.630;8.886;2022-07-21T13:52:21;12.57;;;4.10;;
34405;SDS011;20658;45.630;8.886;2022-07-21T13:54:55;6.85;;;3.80;;
34405;SDS011;20658;45.630;8.886;2022-07-21T13:57:28;12.68;;;4.10;;
34405;SDS011;20658;45.630;8.886;2022-07-21T14:00:02;6.97;;;3.50;;
34405;SDS011;20658;45.630;8.886;2022-07-21T14:02:38;11.05;;;3.85;;
34405;SDS011;20658;45.630;8.886;2022-07-21T14:05:16;6.57;;;3.60;;
34405;SDS011;20658;45.630;8.886;2022-07-21T14:07:49;7.95;;;3.92;;
34405;SDS011;20658;45.630;8.886;2022-07-21T14:10:23;6.82;;;4.13;;
34405;SDS011;20658;45.630;8.886;2022-07-21T14:12:56;13.98;;;4.43;;
34405;SDS011;20658;45.630;8.886;2022-07-21T14:15:30;11.30;;;4.28;;
34405;SDS011;20658;45.630;8.886;2022-07-21T14:18:03;8.50;;;4.10;;
34405;SDS011;20658;45.630;8.886;2022-07-21T14:20:38;7.10;;;4.15;;
34405;SDS011;20658;45.630;8.886;2022-07-21T14:23:12;11.73;;;4.28;;
34405;SDS011;20658;45.630;8.886;2022-07-21T14:25:46;8.05;;;3.95;;
34405;SDS011;20658;45.630;8.886;2022-07-21T14:28:20;13.30;;;4.30;;
34405;SDS011;20658;45.630;8.886;2022-07-21T14:30:54;8.93;;;4.20;;
34405;SDS011;20658;45.630;8.886;2022-07-21T14:33:27;6.65;;;4.15;;
34405;SDS011;20658;45.630;8.886;2022-07-21T14:36:03;10.70;;;4.15;;
34405;SDS011;20658;45.630;8.886;2022-07-21T14:38:37;11.82;;;4.35;;
34405;SDS011;20658;45.630;8.886;2022-07-21T14:41:11;6.38;;;4.28;;
34405;SDS011;20658;45.630;8.886;2022-07-21T14:43:44;10.35;;;4.43;;
34405;SDS011;20658;45.630;8.886;2022-07-21T14:46:20;10.48;;;4.68;;
34405;SDS011;20658;45.630;8.886;2022-07-21T14:48:53;6.32;;;4.55;;
34405;SDS011;20658;45.630;8.886;2022-07-21T14:51:28;9.73;;;4.65;;
34405;SDS011;20658;45.630;8.886;2022-07-21T14:54:02;8.60;;;4.03;;
34405;SDS011;20658;45.630;8.886;2022-07-21T14:56:36;8.60;;;4.13;;
34405;SDS011;20658;45.630;8.886;2022-07-21T14:59:10;7.53;;;4.32;;
34405;SDS011;20658;45.630;8.886;2022-07-21T15:01:43;10.32;;;4.25;;
34405;SDS011;20658;45.630;8.886;2022-07-21T15:04:17;18.17;;;4.50;;
34405;SDS011;20658;45.630;8.886;2022-07-21T15:06:53;10.63;;;4.28;;
34405;SDS011;20658;45.630;8.886;2022-07-21T15:09:26;6.10;;;4.20;;
34405;SDS011;20658;45.630;8.886;2022-07-21T15:12:00;11.48;;;4.43;;
34405;SDS011;20658;45.630;8.886;2022-07-21T15:14:33;7.68;;;4.47;;
34405;SDS011;20658;45.630;8.886;2022-07-21T15:17:07;10.75;;;4.60;;
34405;SDS011;20658;45.630;8.886;2022-07-21T15:19:40;10.77;;;4.60;;
34405;SDS011;20658;45.630;8.886;2022-07-21T15:22:16;10.23;;;4.22;;
34405;SDS011;20658;45.630;8.886;2022-07-21T15:24:49;11.60;;;4.30;;
34405;SDS011;20658;45.630;8.886;2022-07-21T15:27:22;13.02;;;4.85;;
34405;SDS011;20658;45.630;8.886;2022-07-21T15:29:56;7.22;;;4.60;;
34405;SDS011;20658;45.630;8.886;2022-07-21T15:32:29;8.88;;;4.80;;
34405;SDS011;20658;45.630;8.886;2022-07-21T15:35:03;7.53;;;4.00;;
34405;SDS011;20658;45.630;8.886;2022-07-21T15:37:39;9.18;;;4.47;;